Time;durP1;ratioP1;P1;durP2;ratioP2;P2;SDS_P1;SDS_P2;PMS_P1;PMS_P2;Temp;Humidity;BMP_temperature;BMP_pressure;BME280_temperature;BME280_humidity;BME280_pressure;Samples;Min_cycle;Max_cycle;Signal;HPM_P1;HPM_P2
2022/09/19 00:01:45;;;;;;;2.92;1.67;;;;;;;8.69;89.91;97688.98;1709071;84;25427;-65
2022/09/19 00:04:20;;;;;;;2.98;1.77;;;;;;;8.73;89.82;97692.66;1709003;84;25623;-65
2022/09/19 00:06:48;;;;;;;3.33;1.92;;;;;;;8.72;89.78;97691.84;1708088;83;25601;-65
2022/09/19 00:09:19;;;;;;;3.22;1.60;;;;;;;8.70;89.77;97696.84;1709049;83;28277;-64
2022/09/19 00:11:48;;;;;;;2.40;2.00;;;;;;;8.70;89.53;97696.84;1709157;84;25664;-64
2022/09/19 00:14:18;;;;;;;3.22;1.70;;;;;;;8.70;89.99;97690.02;1709096;83;25618;-64
2022/09/19 00:16:46;;;;;;;2.83;1.52;;;;;;;8.76;89.83;97689.27;1708839;83;25830;-64
2022/09/19 00:19:17;;;;;;;2.52;1.50;;;;;;;8.77;89.82;97689.50;1709037;84;25681;-64
2022/09/19 00:21:46;;;;;;;3.62;1.85;;;;;;;8.82;89.68;97696.72;1709073;84;27436;-64
2022/09/19 00:27:06;;;;;;;2.83;1.92;;;;;;;8.80;89.74;97695.67;1708948;84;25651;-63
2022/09/19 00:29:35;;;;;;;3.45;1.92;;;;;;;8.80;89.46;97698.41;1708963;83;26544;-63
2022/09/19 00:32:07;;;;;;;4.15;2.27;;;;;;;8.80;89.80;97696.27;1708955;84;25752;-63
2022/09/19 00:34:31;;;;;;;3.13;1.77;;;;;;;8.78;89.60;97699.31;1709237;83;25918;-63
2022/09/19 00:36:57;;;;;;;2.42;1.60;;;;;;;8.69;89.53;97695.80;1708926;84;25497;-63
2022/09/19 00:39:23;;;;;;;2.90;1.30;;;;;;;8.64;89.65;97692.09;1708892;84;25610;-63
2022/09/19 00:41:50;;;;;;;2.42;1.12;;;;;;;8.63;89.87;97689.69;1709072;83;26451;-63
2022/09/19 00:44:27;;;;;;;2.40;1.35;;;;;;;8.59;89.70;97692.28;1709116;83;25634;-63
2022/09/19 00:47:04;;;;;;;3.00;1.45;;;;;;;8.58;89.84;97692.61;1708768;84;27562;-63
2022/09/19 00:49:37;;;;;;;2.17;1.20;;;;;;;8.53;89.79;97697.06;1705092;83;25627;-63
2022/09/19 00:52:08;;;;;;;2.05;1.15;;;;;;;8.50;89.73;97700.47;1708846;83;25436;-63
2022/09/19 00:54:40;;;;;;;2.98;1.20;;;;;;;8.52;90.09;97708.34;1707334;83;26683;-63
2022/09/19 00:57:09;;;;;;;2.42;1.10;;;;;;;8.47;89.92;97708.49;1708845;83;25421;-63
2022/09/19 00:59:38;;;;;;;2.12;1.20;;;;;;;8.44;90.14;97708.59;1708947;83;28458;-63
2022/09/19 01:02:08;;;;;;;1.87;0.88;;;;;;;8.43;90.18;97715.16;1708899;83;25838;-63
2022/09/19 01:04:36;;;;;;;1.40;0.55;;;;;;;8.40;90.36;97702.14;1708782;84;25532;-63
2022/09/19 01:07:51;;;;;;;1.40;0.80;;;;;;;8.40;90.25;97710.34;1709042;83;25840;-63
2022/09/19 01:10:29;;;;;;;1.87;0.80;;;;;;;8.43;90.50;97708.91;1656635;86;25713;-63
2022/09/19 01:13:09;;;;;;;0.80;0.78;;;;;;;8.45;90.30;97706.09;1655004;86;28326;-63
2022/09/19 01:15:51;;;;;;;1.60;0.98;;;;;;;8.47;90.02;97707.94;1655708;86;25734;-63
2022/09/19 01:18:20;;;;;;;3.10;0.90;;;;;;;8.47;90.24;97698.38;1656832;86;25524;-63
2022/09/19 01:24:28;;;;;;;1.27;1.00;;;;;;;8.43;89.98;97696.04;1656789;86;25831;-63
2022/09/19 01:27:18;;;;;;;0.95;0.78;;;;;;;8.37;89.90;97700.88;1656425;86;28619;-63
2022/09/19 01:30:04;;;;;;;1.67;1.12;;;;;;;8.35;89.84;97694.92;1656534;86;26332;-63
2022/09/19 01:32:35;;;;;;;1.90;1.10;;;;;;;8.35;89.95;97687.31;1656716;86;25697;-64
2022/09/19 01:35:06;;;;;;;1.82;0.95;;;;;;;8.31;89.54;97695.89;1656518;86;25725;-63
2022/09/19 01:37:42;;;;;;;1.67;0.95;;;;;;;8.22;89.32;97694.53;1656968;86;25718;-63
2022/09/19 01:40:17;;;;;;;1.40;0.88;;;;;;;8.20;89.47;97692.13;1656820;86;27613;-63
2022/09/19 01:42:56;;;;;;;1.50;0.95;;;;;;;8.19;89.44;97692.45;1656801;86;25546;-63
2022/09/19 01:45:36;;;;;;;2.95;0.98;;;;;;;8.15;89.32;97690.36;1699990;84;25666;-63
2022/09/19 01:48:24;;;;;;;3.40;1.05;;;;;;;8.15;89.36;97697.19;1708750;83;25412;-62
2022/09/19 01:51:01;;;;;;;1.30;0.80;;;;;;;8.17;89.30;97695.50;1709078;83;25672;-63
2022/09/19 01:53:36;;;;;;;1.62;1.25;;;;;;;8.13;89.31;97703.55;1708694;83;27358;-62
2022/09/19 01:56:33;;;;;;;1.85;1.35;;;;;;;8.14;89.49;97703.77;1708573;83;25427;-62
2022/09/19 01:59:13;;;;;;;2.17;1.50;;;;;;;8.16;89.59;97701.54;1708825;84;25605;-63
2022/09/19 02:01:51;;;;;;;2.33;1.60;;;;;;;8.22;89.63;97707.63;1709309;84;25618;-63
2022/09/19 02:04:34;;;;;;;1.92;1.40;;;;;;;8.25;89.69;97706.98;1709021;83;25577;-62
2022/09/19 02:07:22;;;;;;;2.50;1.20;;;;;;;8.31;89.74;97710.34;1682813;84;27595;-62
2022/09/19 02:10:09;;;;;;;1.50;1.15;;;;;;;8.32;89.75;97708.43;1682063;85;25721;-62
2022/09/19 02:12:39;;;;;;;2.67;1.40;;;;;;;8.31;89.78;97708.98;1682551;85;25542;-62
2022/09/19 02:15:08;;;;;;;2.92;1.57;;;;;;;8.34;89.74;97716.53;1682432;85;25787;-62
2022/09/19 02:17:44;;;;;;;3.10;1.70;;;;;;;8.31;89.75;97713.08;1682337;84;25451;-62
2022/09/19 02:20:12;;;;;;;2.27;1.65;;;;;;;8.36;89.99;97710.75;1680964;85;25830;-62
2022/09/19 02:22:48;;;;;;;;;;;;;;;8.37;89.84;97715.07;1683500;85;25967;-62
2022/09/19 02:25:20;;;;;;;3.50;1.85;;;;;;;8.39;89.76;97715.56;1682531;85;25472;-62
2022/09/19 02:27:50;;;;;;;2.65;1.85;;;;;;;8.36;89.50;97717.57;1682548;85;25714;-62
2022/09/19 02:30:20;;;;;;;3.95;2.35;;;;;;;8.34;89.63;97717.89;1682829;85;25613;-62
2022/09/19 02:32:48;;;;;;;6.05;3.37;;;;;;;8.33;89.62;97720.95;1682176;85;27586;-62
2022/09/19 02:35:36;;;;;;;6.78;4.00;;;;;;;8.34;89.75;97719.27;1682353;85;25854;-62
2022/09/19 02:38:08;;;;;;;5.20;3.02;;;;;;;8.36;89.76;97723.84;1681697;85;25515;-63
2022/09/19 02:41:03;;;;;;;4.47;2.52;;;;;;;8.36;89.62;97722.48;1672076;85;25617;-62
2022/09/19 02:43:53;;;;;;;4.28;2.52;;;;;;;8.38;89.68;97720.80;1685040;84;25718;-62
2022/09/19 02:46:31;;;;;;;4.83;2.75;;;;;;;8.37;89.55;97723.27;1626523;86;27567;-62
2022/09/19 02:49:14;;;;;;;3.75;2.20;;;;;;;8.34;89.77;97728.81;1625974;88;25693;-62
2022/09/19 02:51:54;;;;;;;3.95;2.12;;;;;;;8.31;89.67;97730.82;1625993;88;25569;-62
2022/09/19 02:54:26;;;;;;;2.70;2.00;;;;;;;8.30;89.59;97721.03;1625789;88;25921;-62
2022/09/19 02:56:57;;;;;;;3.85;2.10;;;;;;;8.25;89.63;97719.27;1625733;88;25782;-62
2022/09/19 02:59:28;;;;;;;3.08;2.10;;;;;;;8.22;89.51;97721.28;1625994;88;27386;-62
2022/09/19 03:02:08;;;;;;;5.25;2.22;;;;;;;8.19;89.43;97726.56;1625912;88;25578;-62
2022/09/19 03:04:41;;;;;;;3.58;2.22;;;;;;;8.14;89.07;97721.52;1626030;88;25676;-62
2022/09/19 03:07:18;;;;;;;2.98;2.05;;;;;;;8.11;89.16;97722.16;1626122;88;25873;-62
2022/09/19 03:09:51;;;;;;;3.77;2.10;;;;;;;8.09;89.09;97723.61;1626002;88;25710;-62
2022/09/19 03:12:26;;;;;;;5.33;1.90;;;;;;;8.07;89.18;97725.84;1625754;88;27393;-62
2022/09/19 03:14:58;;;;;;;3.83;2.30;;;;;;;8.04;89.02;97721.84;1625750;88;25570;-62
2022/09/19 03:17:24;;;;;;;2.70;1.90;;;;;;;8.00;89.20;97724.39;1625916;88;25529;-62
2022/09/19 03:19:50;;;;;;;2.85;2.10;;;;;;;7.96;89.14;97725.34;1625941;88;25674;-62
2022/09/19 03:22:16;;;;;;;2.95;2.17;;;;;;;7.88;89.21;97730.48;1626138;86;25755;-62
2022/09/19 03:24:43;;;;;;;4.90;2.37;;;;;;;7.84;89.05;97730.88;1651014;86;27613;-62
2022/09/19 03:27:09;;;;;;;3.00;2.50;;;;;;;7.77;89.04;97729.16;1650755;86;25628;-62
2022/09/19 03:29:36;;;;;;;4.12;2.65;;;;;;;7.74;89.14;97729.80;1650821;86;25598;-62
2022/09/19 03:32:04;;;;;;;4.10;2.58;;;;;;;7.72;89.19;97727.97;1650845;86;26623;-62
2022/09/19 03:34:32;;;;;;;4.20;2.80;;;;;;;7.68;89.14;97732.46;1650951;86;25669;-62
2022/09/19 03:36:59;;;;;;;5.10;2.70;;;;;;;7.68;89.28;97729.73;1650675;86;26550;-62
2022/09/19 03:39:25;;;;;;;4.67;2.47;;;;;;;7.66;89.35;97732.20;1650553;86;25487;-62
2022/09/19 03:41:52;;;;;;;3.58;2.45;;;;;;;7.68;89.48;97731.09;1651035;86;25428;-62
2022/09/19 03:44:19;;;;;;;4.67;2.90;;;;;;;7.68;89.48;97720.97;1652990;85;26466;-62
2022/09/19 03:46:46;;;;;;;9.18;4.45;;;;;;;7.68;89.50;97724.28;1670412;85;25633;-62
2022/09/19 03:49:14;;;;;;;4.22;2.52;;;;;;;7.69;89.51;97735.42;1670380;85;27428;-62
2022/09/19 03:51:41;;;;;;;3.20;2.05;;;;;;;7.69;89.57;97731.33;1670444;85;25604;-62
2022/09/19 03:54:07;;;;;;;2.00;1.60;;;;;;;7.66;89.66;97732.20;1670606;85;25636;-62
2022/09/19 03:56:33;;;;;;;2.35;1.70;;;;;;;7.68;89.85;97731.09;1670345;85;25601;-62
2022/09/19 03:58:59;;;;;;;2.80;2.10;;;;;;;7.68;89.95;97732.46;1670700;85;25626;-62
2022/09/19 04:01:25;;;;;;;3.20;1.90;;;;;;;7.71;90.11;97735.91;1670548;85;27384;-62
2022/09/19 04:03:56;;;;;;;4.45;2.30;;;;;;;7.70;90.06;97731.56;1670737;85;25503;-62
2022/09/19 04:06:27;;;;;;;3.12;2.20;;;;;;;7.74;90.07;97729.80;1670282;85;25706;-62
2022/09/19 04:09:03;;;;;;;3.45;2.17;;;;;;;7.74;90.12;97728.44;1670617;85;25862;-62
2022/09/19 04:11:29;;;;;;;4.20;2.50;;;;;;;7.77;90.15;97734.62;1670519;85;25500;-62
2022/09/19 04:13:56;;;;;;;9.53;6.12;;;;;;;7.80;90.21;97738.07;1670525;85;27558;-62
2022/09/19 04:16:24;;;;;;;10.28;6.45;;;;;;;7.84;90.24;97740.98;1670658;85;25729;-62
2022/09/19 04:18:52;;;;;;;6.12;3.75;;;;;;;7.88;90.22;97746.84;1670501;85;25492;-62
2022/09/19 04:21:18;;;;;;;4.95;3.47;;;;;;;7.91;90.11;97746.21;1670326;85;25796;-62
2022/09/19 04:23:45;;;;;;;3.77;3.22;;;;;;;7.95;90.19;97745.02;1670573;85;25714;-62
2022/09/19 04:26:13;;;;;;;5.08;3.80;;;;;;;8.00;90.32;97750.31;1670906;85;28201;-62
2022/09/19 04:28:41;;;;;;;9.88;5.50;;;;;;;8.05;90.34;97752.08;1670220;85;25610;-62
2022/09/19 04:31:09;;;;;;;18.73;7.92;;;;;;;8.09;90.37;97749.53;1670320;85;25480;-62
2022/09/19 04:33:37;;;;;;;14.03;8.18;;;;;;;8.12;90.18;97761.17;1670404;85;26126;-62
2022/09/19 04:36:05;;;;;;;10.72;5.83;;;;;;;8.17;90.27;97761.00;1670270;85;25451;-62
2022/09/19 04:38:34;;;;;;;6.75;4.30;;;;;;;8.19;90.23;97760.13;1670480;85;27903;-62
2022/09/19 04:41:01;;;;;;;6.35;4.35;;;;;;;8.23;90.17;97765.76;1670340;85;25463;-63
2022/09/19 04:43:29;;;;;;;4.40;3.65;;;;;;;8.26;90.23;97763.17;1670596;85;25689;-62
2022/09/19 04:45:56;;;;;;;6.65;4.35;;;;;;;8.29;90.13;97767.18;1670321;85;25759;-62
2022/09/19 04:48:24;;;;;;;6.67;4.67;;;;;;;8.32;90.05;97770.64;1670313;85;25657;-62
2022/09/19 04:50:53;;;;;;;5.87;4.80;;;;;;;8.34;90.01;97771.68;1670225;85;27431;-62
2022/09/19 04:53:23;;;;;;;6.80;4.50;;;;;;;8.32;89.90;97770.64;1670369;85;25858;-62
2022/09/19 04:55:52;;;;;;;7.17;3.90;;;;;;;8.33;89.85;97767.36;1670772;85;25639;-62
2022/09/19 04:58:20;;;;;;;3.70;2.70;;;;;;;8.35;89.87;97771.94;1670488;85;26577;-62
2022/09/19 05:00:53;;;;;;;3.52;2.42;;;;;;;8.35;89.85;97770.58;1670274;85;25692;-62
2022/09/19 05:03:25;;;;;;;2.95;2.20;;;;;;;8.32;89.65;97782.92;1670293;85;28259;-62
2022/09/19 05:05:52;;;;;;;2.65;1.82;;;;;;;8.32;89.62;97782.13;1669767;85;25511;-62
2022/09/19 05:08:25;;;;;;;3.55;2.25;;;;;;;8.30;89.67;97781.09;1670232;85;25416;-62
2022/09/19 05:10:56;;;;;;;3.60;1.98;;;;;;;8.27;89.66;97787.97;1670409;85;25739;-62
2022/09/19 05:13:29;;;;;;;3.22;2.25;;;;;;;8.25;89.70;97792.97;1668914;85;25711;-62
2022/09/19 05:15:55;;;;;;;7.58;2.65;;;;;;;8.27;90.03;97785.83;1670578;85;27600;-62
2022/09/19 05:18:23;;;;;;;3.58;2.47;;;;;;;8.34;90.03;97792.16;1670401;85;25872;-62
2022/09/19 05:20:52;;;;;;;3.90;2.60;;;;;;;8.37;90.15;97788.78;1670498;85;25455;-62
2022/09/19 05:23:24;;;;;;;4.75;3.30;;;;;;;8.43;90.00;97792.18;1670146;85;25955;-62
2022/09/19 05:25:53;;;;;;;5.65;3.12;;;;;;;8.46;89.96;97800.52;1670603;85;25721;-62
2022/09/19 05:28:27;;;;;;;8.03;3.80;;;;;;;8.50;89.95;97793.86;1670729;85;28132;-61
2022/09/19 05:30:54;;;;;;;;;;;;;;;8.55;90.17;97802.48;1672670;85;25501;-62
2022/09/19 05:33:23;;;;;;;5.22;3.25;;;;;;;8.59;90.12;97808.35;1670272;85;25671;-62
2022/09/19 05:35:47;;;;;;;4.78;3.22;;;;;;;8.64;90.36;97805.44;1669370;85;25680;-61
2022/09/19 05:38:13;;;;;;;6.60;3.12;;;;;;;8.68;90.13;97808.89;1670208;85;25707;-62
2022/09/19 05:40:40;;;;;;;8.80;4.20;;;;;;;8.69;90.10;97814.62;1670199;85;27508;-61
2022/09/19 05:43:06;;;;;;;9.90;4.35;;;;;;;8.74;90.09;97817.17;1670092;85;25635;-62
2022/09/19 05:45:33;;;;;;;11.00;4.55;;;;;;;8.78;90.08;97821.67;1663902;85;25668;-61
2022/09/19 05:48:06;;;;;;;9.43;4.25;;;;;;;8.84;89.93;97830.49;1650515;86;25793;-62
2022/09/19 05:50:33;;;;;;;13.55;7.10;;;;;;;8.87;89.84;97833.16;1650919;86;25440;-62
2022/09/19 05:55:45;;;;;;;6.62;3.55;;;;;;;8.93;88.74;97832.43;1650444;86;25436;-62
2022/09/19 05:58:13;;;;;;;6.53;3.40;;;;;;;8.95;89.29;97834.28;1650826;86;25592;-61
2022/09/19 06:00:39;;;;;;;6.22;3.80;;;;;;;8.95;89.15;97840.53;1650517;86;25594;-62
2022/09/19 06:03:09;;;;;;;9.15;4.72;;;;;;;8.96;89.39;97839.42;1650466;86;25508;-62
2022/09/19 06:05:43;;;;;;;6.60;4.08;;;;;;;8.97;89.37;97842.39;1650289;86;27399;-62
2022/09/19 06:08:09;;;;;;;7.70;4.05;;;;;;;9.01;89.68;97845.29;1650814;86;25752;-62
2022/09/19 06:10:40;;;;;;;5.70;3.20;;;;;;;9.02;89.36;97848.25;1650874;86;25689;-62
2022/09/19 06:13:07;;;;;;;;;;;;;;;9.04;89.23;97846.02;1653306;86;25841;-62
2022/09/19 06:15:34;;;;;;;5.58;2.95;;;;;;;9.00;88.63;97852.67;1632058;86;25506;-62
2022/09/19 06:18:00;;;;;;;7.30;5.15;;;;;;;8.98;88.63;97854.13;1650618;86;27416;-62
2022/09/19 06:20:27;;;;;;;4.87;3.33;;;;;;;9.01;88.96;97855.64;1650464;86;25722;-62
2022/09/19 06:23:01;;;;;;;5.62;3.65;;;;;;;9.05;89.09;97855.81;1650715;86;25455;-62
2022/09/19 06:25:31;;;;;;;5.03;3.40;;;;;;;9.06;88.68;97861.50;1650516;86;25826;-62
2022/09/19 06:28:01;;;;;;;5.90;3.30;;;;;;;9.07;88.48;97865.05;1650614;86;25480;-62
2022/09/19 06:30:28;;;;;;;5.33;3.40;;;;;;;9.12;88.49;97865.68;1650767;86;27405;-62
2022/09/19 06:32:56;;;;;;;6.60;3.92;;;;;;;9.18;88.72;97873.72;1650794;86;25455;-62
2022/09/19 06:35:26;;;;;;;6.72;3.85;;;;;;;9.25;88.81;97868.56;1650589;86;25688;-62
2022/09/19 06:38:00;;;;;;;9.98;4.12;;;;;;;9.32;88.90;97864.76;1650648;86;25601;-62
2022/09/19 06:40:27;;;;;;;6.67;4.20;;;;;;;9.42;89.14;97871.83;1650905;86;25710;-61
2022/09/19 06:43:02;;;;;;;9.60;5.55;;;;;;;9.53;89.15;97868.97;1650709;86;27566;-61
2022/09/19 06:45:37;;;;;;;7.22;3.98;;;;;;;9.71;89.36;97876.32;1650570;86;25753;-61
2022/09/19 06:48:05;;;;;;;6.53;3.90;;;;;;;9.89;87.76;97876.50;1650485;86;25642;-61
2022/09/19 06:50:32;;;;;;;5.03;3.52;;;;;;;10.02;87.28;97882.08;1650734;86;25709;-61
2022/09/19 06:52:59;;;;;;;6.97;3.77;;;;;;;10.03;87.34;97885.05;1650822;86;25649;-61
2022/09/19 06:55:27;;;;;;;5.62;3.30;;;;;;;10.00;86.63;97888.44;1650669;86;27418;-61
2022/09/19 06:58:02;;;;;;;6.03;3.30;;;;;;;10.00;86.95;97891.18;1650453;86;25499;-61
2022/09/19 07:00:35;;;;;;;5.42;3.30;;;;;;;10.00;87.03;97887.08;1650692;86;25603;-60
2022/09/19 07:03:11;;;;;;;4.55;2.90;;;;;;;10.03;87.30;97889.16;1650420;86;25689;-60
2022/09/19 07:05:40;;;;;;;5.15;3.10;;;;;;;10.09;86.74;97895.23;1650853;86;25136;-60
2022/09/19 07:08:07;;;;;;;4.37;2.92;;;;;;;10.26;87.75;97894.36;1650822;86;27620;-60
2022/09/19 07:10:36;;;;;;;5.83;3.30;;;;;;;10.37;86.46;97901.07;1650411;86;25637;-60
2022/09/19 07:13:05;;;;;;;5.05;3.50;;;;;;;10.41;86.19;97901.19;1650538;86;25499;-60
2022/09/19 07:15:35;;;;;;;4.87;2.67;;;;;;;10.44;85.79;97901.91;1650632;86;26265;-59
2022/09/19 07:18:03;;;;;;;5.25;3.05;;;;;;;10.49;85.57;97907.23;1650638;86;25618;-60
2022/09/19 07:20:30;;;;;;;4.72;2.98;;;;;;;10.54;85.74;97902.91;1650928;86;27300;-60
2022/09/19 07:23:15;;;;;;;3.25;2.50;;;;;;;10.57;85.48;97902.83;1650389;87;26004;-60
2022/09/19 07:25:43;;;;;;;3.15;2.40;;;;;;;10.56;84.62;97901.20;1650048;86;25764;-60
2022/09/19 07:28:14;;;;;;;3.35;2.60;;;;;;;10.52;84.38;97903.02;1650763;86;25687;-60
2022/09/19 07:30:48;;;;;;;9.15;5.25;;;;;;;10.48;84.40;97909.72;1650530;86;25494;-60
2022/09/19 07:33:13;;;;;;;6.50;3.53;;;;;;;10.50;84.62;97906.09;1650581;86;26036;-60
2022/09/19 07:35:41;;;;;;;4.12;3.22;;;;;;;10.56;85.90;97912.16;1647240;85;25821;-60
2022/09/19 07:38:14;;;;;;;4.42;3.30;;;;;;;10.63;85.84;97911.66;1647983;86;26485;-60
2022/09/19 07:40:42;;;;;;;4.62;3.10;;;;;;;10.66;84.82;97913.17;1651382;86;25944;-60
2022/09/19 07:43:14;;;;;;;5.53;3.37;;;;;;;10.82;85.98;97922.15;1663316;85;25799;-60
2022/09/19 07:45:49;;;;;;;3.67;2.27;;;;;;;10.92;85.63;97918.22;1665834;85;28154;-60
2022/09/19 07:48:17;;;;;;;5.97;3.42;;;;;;;10.98;83.75;97925.11;1684435;85;25867;-60
2022/09/19 07:50:45;;;;;;;3.62;2.80;;;;;;;10.98;83.84;97922.37;1669374;85;25802;-60
2022/09/19 07:53:15;;;;;;;3.80;3.08;;;;;;;10.98;83.87;97922.92;1669727;85;25749;-60
2022/09/19 07:55:43;;;;;;;4.00;3.02;;;;;;;10.96;83.63;97926.00;1670029;85;25724;-59
2022/09/19 07:58:12;;;;;;;3.72;2.92;;;;;;;10.95;83.49;97922.22;1669572;85;27415;-59
2022/09/19 08:00:40;;;;;;;2.80;2.35;;;;;;;10.92;83.66;97919.59;1669804;85;25795;-59
2022/09/19 08:03:15;;;;;;;4.42;2.83;;;;;;;10.93;82.97;97918.44;1669788;85;25750;-59
2022/09/19 08:05:45;;;;;;;5.40;2.58;;;;;;;10.99;83.80;97919.85;1670069;85;25745;-59
2022/09/19 08:08:15;;;;;;;4.83;2.58;;;;;;;11.17;84.05;97930.69;1670051;85;27423;-60
2022/09/19 08:10:43;;;;;;;3.52;2.58;;;;;;;11.22;81.42;97925.54;1669941;85;28135;-60
2022/09/19 08:13:13;;;;;;;3.12;2.60;;;;;;;11.17;82.34;97932.06;1669886;85;26057;-60
2022/09/19 08:15:43;;;;;;;3.33;2.70;;;;;;;11.06;82.92;97938.52;1669902;85;25722;-60
2022/09/19 08:18:16;;;;;;;5.53;2.35;;;;;;;10.84;81.79;97937.70;1670076;85;26313;-60
2022/09/19 08:20:44;;;;;;;3.27;2.55;;;;;;;10.58;82.57;97941.41;1670150;85;25763;-60
2022/09/19 08:23:14;;;;;;;3.30;2.70;;;;;;;10.50;83.67;97942.25;1669949;85;26907;-59
2022/09/19 08:25:46;;;;;;;4.75;2.75;;;;;;;10.59;84.86;97938.12;1670035;85;25734;-60
2022/09/19 08:28:11;;;;;;;5.62;3.25;;;;;;;10.71;85.27;97945.62;1669838;85;26469;-60
2022/09/19 08:30:39;;;;;;;4.92;3.30;;;;;;;10.83;85.55;97943.52;1670122;85;25819;-60
2022/09/19 08:33:07;;;;;;;3.55;2.95;;;;;;;10.89;84.65;97945.73;1669906;85;25793;-60
2022/09/19 08:35:37;;;;;;;2.55;2.10;;;;;;;10.97;84.60;97950.11;1669887;85;28197;-60
2022/09/19 08:38:02;;;;;;;1.82;1.07;;;;;;;10.88;82.80;97957.82;1682838;85;25722;-60
2022/09/19 08:40:36;;;;;;;1.82;1.32;;;;;;;10.84;82.07;97956.89;1688464;85;25742;-60
2022/09/19 08:43:40;;;;;;;2.10;1.42;;;;;;;10.84;82.87;97959.63;1688390;84;26379;-60
2022/09/19 08:46:39;;;;;;;2.72;1.90;;;;;;;10.89;82.98;97960.81;1684900;84;25777;-59
2022/09/19 08:49:17;;;;;;;2.60;1.85;;;;;;;11.26;84.83;97957.45;1663452;85;28773;-59
2022/09/19 08:52:07;;;;;;;2.15;1.50;;;;;;;11.60;82.43;97961.59;1663044;85;25789;-59
2022/09/19 08:54:40;;;;;;;2.12;1.57;;;;;;;11.70;79.39;97962.30;1663738;86;25798;-59
2022/09/19 08:57:33;;;;;;;2.15;1.40;;;;;;;11.78;78.61;97968.28;1663955;85;25793;-59
2022/09/19 09:00:07;;;;;;;3.05;1.37;;;;;;;11.85;78.79;97959.48;1663501;85;25504;-59
2022/09/19 09:02:45;;;;;;;1.57;1.10;;;;;;;12.27;80.98;97955.22;1677914;85;27499;-59
2022/09/19 09:05:20;;;;;;;2.20;1.60;;;;;;;12.89;80.78;97953.58;1664691;85;25894;-59
2022/09/19 09:08:20;;;;;;;1.67;1.27;;;;;;;13.45;78.02;97957.56;1664475;86;25678;-59
2022/09/19 09:10:57;;;;;;;2.20;1.30;;;;;;;13.97;72.22;97957.79;1664759;85;35077;-59
2022/09/19 09:13:47;;;;;;;1.00;0.75;;;;;;;14.37;73.02;97964.29;1664680;85;25534;-59
2022/09/19 09:16:23;;;;;;;0.98;0.82;;;;;;;14.43;69.90;97960.68;1685605;84;27392;-60
2022/09/19 09:19:18;;;;;;;1.62;1.00;;;;;;;14.26;70.28;97965.40;1685407;85;25543;-60
2022/09/19 09:22:19;;;;;;;2.02;1.27;;;;;;;14.28;71.44;97967.20;1685617;85;25719;-59
2022/09/19 09:25:00;;;;;;;1.75;1.12;;;;;;;14.30;69.96;97973.73;1685516;85;25727;-59
2022/09/19 09:27:32;;;;;;;2.65;1.40;;;;;;;14.22;70.80;97976.89;1684304;85;25735;-59
2022/09/19 09:30:07;;;;;;;1.67;1.20;;;;;;;14.24;70.35;97971.02;1685482;85;27408;-59
2022/09/19 09:32:36;;;;;;;1.00;0.88;;;;;;;14.49;70.37;97974.98;1684959;85;25518;-59
2022/09/19 09:35:29;;;;;;;0.80;0.70;;;;;;;14.67;68.76;97970.70;1685663;85;25462;-59
2022/09/19 09:38:21;;;;;;;1.17;0.70;;;;;;;14.82;67.27;97972.42;1685339;85;25715;-59
2022/09/19 09:44:13;;;;;;;1.98;0.88;;;;;;;15.34;64.75;97970.97;1624806;88;25682;-59
2022/09/19 09:47:18;;;;;;;1.67;1.10;;;;;;;15.62;66.72;97966.37;1624497;88;27078;-59
2022/09/19 09:49:46;;;;;;;2.70;1.10;;;;;;;15.85;66.29;97973.91;1625036;88;25519;-60
2022/09/19 09:52:57;;;;;;;2.37;1.22;;;;;;;15.96;65.55;97969.39;1605770;88;25729;-60
2022/09/19 09:58:49;;;;;;;1.85;1.27;;;;;;;15.39;62.67;97976.20;1626712;88;27436;-61
2022/09/19 10:04:30;;;;;;;3.92;1.50;;;;;;;14.57;63.60;97973.20;1607005;89;25691;-61
2022/09/19 10:07:20;;;;;;;2.30;1.70;;;;;;;14.20;63.61;97977.03;1607388;89;26372;-60
2022/09/19 10:09:57;;;;;;;2.23;1.40;;;;;;;14.13;66.25;97978.45;1605296;89;25762;-60
2022/09/19 10:12:29;;;;;;;3.12;1.42;;;;;;;14.27;66.82;97979.96;1586189;89;27508;-60
2022/09/19 10:15:00;;;;;;;1.85;1.50;;;;;;;14.47;66.80;97986.37;1606699;89;25706;-60
2022/09/19 10:17:33;;;;;;;2.62;1.32;;;;;;;14.97;65.72;97981.81;1625445;86;25731;-60
2022/09/19 10:20:04;;;;;;;1.90;1.52;;;;;;;15.41;63.46;97989.08;1659454;86;25872;-60
2022/09/19 10:22:30;;;;;;;2.45;1.52;;;;;;;15.60;62.42;97991.59;1659522;86;25468;-60
2022/09/19 10:24:59;;;;;;;3.05;1.90;;;;;;;15.52;62.76;97991.25;1659784;86;27418;-60
2022/09/19 10:27:39;;;;;;;1.90;1.55;;;;;;;15.54;61.85;97998.00;1659247;86;25724;-61
2022/09/19 10:30:27;;;;;;;2.80;1.70;;;;;;;15.76;61.63;97993.48;1659170;86;25514;-61
2022/09/19 10:32:54;;;;;;;2.25;1.40;;;;;;;16.00;62.27;97996.53;1659407;86;25793;-61
2022/09/19 10:35:37;;;;;;;2.25;1.50;;;;;;;16.21;60.42;97995.91;1661692;86;25552;-60
2022/09/19 10:38:17;;;;;;;2.00;1.35;;;;;;;16.81;60.51;97991.72;1664454;85;27538;-60
2022/09/19 10:40:58;;;;;;;1.75;1.30;;;;;;;17.42;55.31;97998.71;1664740;85;25522;-60
2022/09/19 10:43:47;;;;;;;1.98;1.30;;;;;;;17.99;55.39;97998.97;1664667;85;25533;-61
2022/09/19 10:46:23;;;;;;;1.50;1.15;;;;;;;18.30;54.64;97999.09;1664299;86;25951;-61
2022/09/19 10:48:56;;;;;;;2.00;1.50;;;;;;;18.41;57.34;97992.84;1664702;85;25532;-61
2022/09/19 10:51:40;;;;;;;1.60;1.42;;;;;;;18.21;54.43;98000.58;1664701;86;27820;-62
2022/09/19 10:54:30;;;;;;;2.27;1.40;;;;;;;17.78;55.66;98010.02;1664131;85;25496;-61
2022/09/19 10:57:04;;;;;;;1.65;1.32;;;;;;;17.27;53.71;98010.80;1664264;85;25663;-61
2022/09/19 10:59:36;;;;;;;3.12;1.70;;;;;;;16.73;55.70;98019.89;1663083;85;25639;-62
2022/09/19 11:02:19;;;;;;;2.45;1.40;;;;;;;16.14;55.63;98015.34;1664594;86;25666;-62
2022/09/19 11:05:02;;;;;;;2.75;1.40;;;;;;;15.59;56.50;98019.58;1665019;86;27539;-62
2022/09/19 11:07:42;;;;;;;1.07;0.70;;;;;;;15.43;59.34;98025.98;1664391;85;26208;-62
2022/09/19 11:10:37;;;;;;;1.02;0.80;;;;;;;15.37;58.33;98023.30;1664355;85;25753;-61
2022/09/19 11:13:15;;;;;;;1.05;0.80;;;;;;;15.22;57.23;98032.63;1664340;85;25789;-61
2022/09/19 11:16:06;;;;;;;1.12;0.82;;;;;;;14.78;58.87;98039.93;1664484;85;25460;-61
2022/09/19 11:18:54;;;;;;;0.90;0.55;;;;;;;14.35;58.22;98044.34;1664700;85;27423;-61
2022/09/19 11:21:33;;;;;;;1.07;0.70;;;;;;;13.89;60.15;98046.31;1664294;86;25682;-61
2022/09/19 11:24:21;;;;;;;1.82;0.60;;;;;;;13.57;61.03;98042.63;1665142;85;25675;-61
2022/09/19 11:26:58;;;;;;;1.02;0.50;;;;;;;13.68;59.95;98043.76;1643006;86;26344;-61
2022/09/19 11:29:33;;;;;;;0.50;0.40;;;;;;;13.78;60.05;98037.75;1654620;86;25549;-61
2022/09/19 11:32:22;;;;;;;0.72;0.50;;;;;;;13.66;58.99;98038.60;1654785;86;27452;-61
2022/09/19 11:35:03;;;;;;;1.00;0.80;;;;;;;13.63;60.74;98038.48;1654903;86;25545;-62
2022/09/19 11:37:53;;;;;;;;;;;;;;;13.58;60.42;98045.63;1657520;86;25687;-61
2022/09/19 11:40:36;;;;;;;1.32;0.72;;;;;;;13.62;61.58;98040.42;1654720;86;25722;-62
2022/09/19 11:43:12;;;;;;;2.33;0.75;;;;;;;13.68;62.40;98038.25;1653873;86;25568;-62
2022/09/19 11:46:03;;;;;;;1.80;0.70;;;;;;;13.72;62.16;98039.71;1654831;86;28747;-62
2022/09/19 11:48:54;;;;;;;1.35;0.80;;;;;;;13.72;62.16;98039.71;1654424;86;25491;-62
2022/09/19 11:51:35;;;;;;;1.80;0.90;;;;;;;13.69;61.37;98039.84;1655035;86;25722;-62
2022/09/19 11:54:24;;;;;;;2.72;0.93;;;;;;;13.81;61.89;98041.74;1655043;86;25874;-62
2022/09/19 11:57:10;;;;;;;2.35;1.05;;;;;;;13.96;61.55;98043.53;1655091;86;25671;-62
2022/09/19 11:59:51;;;;;;;1.62;0.98;;;;;;;14.10;60.50;98046.66;1655112;86;27571;-62
2022/09/19 12:02:50;;;;;;;1.27;1.00;;;;;;;14.19;62.06;98042.36;1657416;86;25525;-62
2022/09/19 12:05:28;;;;;;;1.22;0.90;;;;;;;14.91;60.78;98043.97;1664521;85;25633;-61
2022/09/19 12:08:07;;;;;;;1.30;0.80;;;;;;;15.70;56.92;98045.47;1685525;84;25939;-61
2022/09/19 12:10:44;;;;;;;1.57;1.17;;;;;;;16.50;57.23;98042.02;1596510;89;25749;-61
2022/09/19 12:13:23;;;;;;;3.58;1.30;;;;;;;16.92;54.18;98052.77;1596224;89;28418;-59
2022/09/19 12:16:03;;;;;;;2.42;1.12;;;;;;;16.26;57.17;98066.89;1596118;89;25673;-59
2022/09/19 12:18:55;;;;;;;1.42;1.00;;;;;;;15.63;61.18;98071.56;1595816;89;25650;-60
2022/09/19 12:21:26;;;;;;;4.33;1.15;;;;;;;15.23;62.25;98059.66;1596219;89;25756;-60
2022/09/19 12:27:14;;;;;;;3.40;0.80;;;;;;;14.92;65.71;98062.11;1596218;89;27537;-60
2022/09/19 12:30:06;;;;;;;1.55;1.05;;;;;;;14.93;64.91;98067.27;1596339;89;25758;-60
2022/09/19 12:33:06;;;;;;;1.77;1.07;;;;;;;15.46;64.40;98059.78;1589109;89;25782;-59
2022/09/19 12:35:36;;;;;;;2.87;1.52;;;;;;;16.10;63.58;98061.47;1595849;89;25693;-59